Time;durP1;ratioP1;P1;durP2;ratioP2;P2;SDS_P1;SDS_P2;PMS_P1;PMS_P2;Temp;Humidity;BMP_temperature;BMP_pressure;BME280_temperature;BME280_humidity;BME280_pressure;Samples;Min_cycle;Max_cycle;Signal;HPM_P1;HPM_P2
2023/05/19 04:01:27;;;;;;;1.73;1.63;;;9.20;97.30;;;;;;5578941;23;20503;-81
2023/05/19 04:03:53;;;;;;;3.07;1.70;;;9.30;97.30;;;;;;5015987;28;20427;-82
2023/05/19 04:06:18;;;;;;;4.13;2.20;;;9.30;97.30;;;;;;5008525;28;20176;-82
2023/05/19 04:08:44;;;;;;;1.27;1.23;;;9.30;97.30;;;;;;5016640;28;20666;-81
2023/05/19 04:11:10;;;;;;;1.87;1.77;;;9.30;97.30;;;;;;5032793;28;20208;-82
2023/05/19 04:13:35;;;;;;;2.23;2.07;;;9.30;97.30;;;;;;5034292;28;20176;-79
2023/05/19 04:16:01;;;;;;;1.73;1.63;;;9.30;97.30;;;;;;5014513;28;20177;-81
2023/05/19 04:18:26;;;;;;;1.80;1.70;;;9.30;97.30;;;;;;4995677;28;20184;-82
2023/05/19 04:20:52;;;;;;;1.50;1.40;;;9.30;97.30;;;;;;5016243;28;20291;-82
2023/05/19 04:23:17;;;;;;;1.40;1.30;;;9.30;97.30;;;;;;5017177;28;20176;-81
2023/05/19 04:25:43;;;;;;;4.60;2.43;;;9.30;97.30;;;;;;5027943;28;20211;-81
2023/05/19 04:28:08;;;;;;;1.53;1.43;;;9.40;97.30;;;;;;5033007;28;20271;-82
2023/05/19 04:30:35;;;;;;;2.10;2.00;;;9.40;97.30;;;;;;5014982;28;20202;-81
2023/05/19 04:33:03;;;;;;;3.20;2.40;;;9.40;97.30;;;;;;4995794;28;20180;-82
2023/05/19 04:35:29;;;;;;;1.43;1.33;;;9.50;97.30;;;;;;5015429;28;20431;-82
2023/05/19 04:37:55;;;;;;;1.57;1.47;;;9.50;97.30;;;;;;4996530;28;20423;-84
2023/05/19 04:40:22;;;;;;;6.43;2.30;;;9.60;97.30;;;;;;4994624;28;20456;-83
2023/05/19 04:42:48;;;;;;;3.23;1.37;;;9.60;97.30;;;;;;5009806;28;20170;-80
2023/05/19 04:45:14;;;;;;;2.10;1.97;;;9.60;97.30;;;;;;5011420;28;20407;-83
2023/05/19 04:47:40;;;;;;;1.50;1.40;;;9.60;97.30;;;;;;4990578;28;20423;-79
2023/05/19 04:50:06;;;;;;;2.07;1.97;;;9.70;97.30;;;;;;5004794;28;20173;-83
2023/05/19 04:52:32;;;;;;;2.00;1.90;;;9.70;97.30;;;;;;4990751;28;20523;-81
2023/05/19 04:54:58;;;;;;;1.57;1.40;;;9.70;97.30;;;;;;4996704;28;20462;-82
2023/05/19 04:57:23;;;;;;;7.07;1.80;;;9.70;97.30;;;;;;4991678;28;20475;-81
2023/05/19 04:59:49;;;;;;;2.87;1.53;;;9.70;97.30;;;;;;5008234;28;20210;-82
2023/05/19 05:02:15;;;;;;;2.07;1.83;;;9.80;97.30;;;;;;4994531;28;20278;-83
2023/05/19 05:04:42;;;;;;;2.17;1.47;;;9.80;97.30;;;;;;5007705;28;20188;-82
2023/05/19 05:07:08;;;;;;;1.60;1.60;;;9.80;97.30;;;;;;4990788;28;20206;-82
2023/05/19 05:09:34;;;;;;;2.33;1.57;;;9.90;97.30;;;;;;5008626;28;20427;-82
2023/05/19 05:12:01;;;;;;;12.80;2.20;;;9.90;97.30;;;;;;4994481;28;20446;-83
2023/05/19 05:14:27;;;;;;;5.13;1.87;;;10.00;97.30;;;;;;5010003;28;20643;-82
2023/05/19 05:16:53;;;;;;;2.60;2.40;;;10.00;97.30;;;;;;4993750;28;20467;-82
2023/05/19 05:19:20;;;;;;;2.80;2.17;;;10.10;97.30;;;;;;4993620;28;20178;-82
2023/05/19 05:21:46;;;;;;;1.10;1.00;;;10.10;97.30;;;;;;4991609;28;20437;-80
2023/05/19 05:24:12;;;;;;;1.40;1.30;;;10.10;97.30;;;;;;5006219;28;20419;-82
2023/05/19 05:26:38;;;;;;;1.97;1.87;;;10.20;97.30;;;;;;4988572;28;20173;-82
2023/05/19 05:29:03;;;;;;;1.43;1.37;;;10.30;97.30;;;;;;4998107;28;20419;-81
2023/05/19 05:31:30;;;;;;;1.97;1.87;;;10.40;97.30;;;;;;4986552;28;20205;-82
2023/05/19 05:33:55;;;;;;;2.33;1.40;;;10.40;97.30;;;;;;4991556;28;20173;-82
2023/05/19 05:36:21;;;;;;;4.23;2.07;;;10.50;97.30;;;;;;5001543;28;20426;-80
2023/05/19 05:38:46;;;;;;;1.63;1.53;;;10.60;97.30;;;;;;5015878;28;20643;-82
2023/05/19 05:41:12;;;;;;;2.30;2.10;;;10.60;97.30;;;;;;5033006;28;20236;-79
2023/05/19 05:43:37;;;;;;;1.70;1.47;;;10.70;97.30;;;;;;4998026;28;20197;-81
2023/05/19 05:46:03;;;;;;;1.80;1.70;;;10.80;97.30;;;;;;5016136;28;20193;-82
2023/05/19 05:48:29;;;;;;;1.67;1.57;;;10.80;97.30;;;;;;5015059;28;20180;-81
2023/05/19 05:50:56;;;;;;;9.23;4.13;;;10.90;97.30;;;;;;5037173;28;20201;-81
2023/05/19 05:53:24;;;;;;;1.77;1.60;;;11.00;97.30;;;;;;5013042;28;20419;-81
2023/05/19 05:55:50;;;;;;;2.07;1.93;;;11.00;97.30;;;;;;5030361;28;20425;-81
2023/05/19 05:58:16;;;;;;;1.40;1.33;;;11.10;97.30;;;;;;5008446;28;20427;-81
2023/05/19 06:00:42;;;;;;;1.80;1.70;;;11.20;97.30;;;;;;5020919;28;20234;-80
2023/05/19 06:03:09;;;;;;;2.57;1.23;;;11.30;97.30;;;;;;4998675;28;20674;-81
2023/05/19 06:05:35;;;;;;;1.87;1.40;;;11.30;97.30;;;;;;4996245;28;20466;-82
2023/05/19 06:08:01;;;;;;;2.13;1.97;;;11.40;97.30;;;;;;4999668;28;20756;-81
2023/05/19 06:10:27;;;;;;;1.50;1.20;;;11.50;97.30;;;;;;4995350;28;20185;-81
2023/05/19 06:12:53;;;;;;;1.20;1.10;;;11.60;97.30;;;;;;4997008;28;20181;-82
2023/05/19 06:15:20;;;;;;;8.97;2.40;;;11.60;97.30;;;;;;5001482;28;20795;-81
2023/05/19 06:17:45;;;;;;;1.80;1.70;;;11.80;97.30;;;;;;5013387;28;20419;-81
2023/05/19 06:20:12;;;;;;;1.37;1.33;;;11.80;97.30;;;;;;4999584;28;20541;-79
2023/05/19 06:22:37;;;;;;;1.80;1.73;;;11.90;97.30;;;;;;5028531;28;20208;-79
2023/05/19 06:25:04;;;;;;;1.63;1.50;;;12.00;97.30;;;;;;5009692;28;20498;-82
2023/05/19 06:27:29;;;;;;;1.37;1.27;;;12.10;97.30;;;;;;4998391;28;20610;-80
2023/05/19 06:29:55;;;;;;;2.37;2.10;;;12.20;97.30;;;;;;4989778;28;20462;-82
2023/05/19 06:32:20;;;;;;;3.33;1.63;;;12.20;97.30;;;;;;4992194;28;20763;-82
2023/05/19 06:34:52;;;;;;;1.67;1.57;;;12.30;97.30;;;;;;4985567;28;20188;-79
2023/05/19 06:37:24;;;;;;;8.60;1.70;;;12.30;97.30;;;;;;5004302;28;20173;-82
2023/05/19 06:39:52;;;;;;;2.90;2.30;;;12.40;97.30;;;;;;5006233;28;20896;-82
2023/05/19 06:42:21;;;;;;;1.63;1.27;;;12.40;97.30;;;;;;5008432;28;20898;-82
2023/05/19 06:44:51;;;;;;;1.00;0.90;;;12.50;97.20;;;;;;5015105;28;20419;-80
2023/05/19 06:47:17;;;;;;;1.53;1.43;;;12.60;97.30;;;;;;5005938;28;20447;-81
2023/05/19 06:49:49;;;;;;;1.53;1.43;;;12.70;96.90;;;;;;5013281;28;20800;-82
2023/05/19 06:52:15;;;;;;;1.63;1.53;;;12.90;96.00;;;;;;5000522;28;20435;-82
2023/05/19 06:54:41;;;;;;;1.63;1.60;;;13.00;96.50;;;;;;5006988;28;20424;-82
2023/05/19 06:57:06;;;;;;;5.03;2.40;;;13.20;95.80;;;;;;5007156;28;20510;-81
2023/05/19 06:59:32;;;;;;;1.37;1.27;;;13.40;95.00;;;;;;5014232;28;20203;-81
2023/05/19 07:01:57;;;;;;;1.83;1.73;;;13.50;94.30;;;;;;5012754;28;20274;-81
2023/05/19 07:04:23;;;;;;;1.83;1.73;;;13.50;93.90;;;;;;5032315;28;20674;-82
2023/05/19 07:06:49;;;;;;;2.43;1.90;;;13.70;94.10;;;;;;5014809;28;20200;-82
2023/05/19 07:09:15;;;;;;;2.30;2.10;;;13.80;94.00;;;;;;5032332;28;20548;-82
2023/05/19 07:11:40;;;;;;;2.30;1.73;;;13.90;93.90;;;;;;5006829;28;20223;-82
2023/05/19 07:14:05;;;;;;;1.40;1.30;;;14.00;94.00;;;;;;5013378;28;20177;-81
2023/05/19 07:16:31;;;;;;;1.03;1.00;;;14.20;93.20;;;;;;5014568;28;20664;-81
2023/05/19 07:18:57;;;;;;;7.60;2.07;;;14.20;92.80;;;;;;5014027;28;20200;-80
2023/05/19 07:21:22;;;;;;;1.67;1.53;;;14.40;93.10;;;;;;5031182;28;20215;-81
2023/05/19 07:23:48;;;;;;;1.53;1.17;;;14.50;92.90;;;;;;5007471;28;20236;-81
2023/05/19 07:26:13;;;;;;;2.03;1.90;;;14.60;91.70;;;;;;5000519;28;20184;-82
2023/05/19 07:28:38;;;;;;;2.80;1.93;;;14.60;91.20;;;;;;5016474;28;20172;-83
2023/05/19 07:31:04;;;;;;;1.60;1.47;;;14.60;89.20;;;;;;5014556;28;20578;-81
2023/05/19 07:33:29;;;;;;;6.47;2.87;;;14.50;89.60;;;;;;5034546;28;20451;-80
2023/05/19 07:35:55;;;;;;;2.10;1.50;;;14.50;90.60;;;;;;5013797;28;20189;-81
2023/05/19 07:38:21;;;;;;;1.83;1.10;;;14.60;89.50;;;;;;5033942;28;20208;-81
2023/05/19 07:40:46;;;;;;;7.90;2.70;;;14.70;89.80;;;;;;5006855;28;20748;-81
2023/05/19 07:43:12;;;;;;;1.00;1.00;;;14.80;90.10;;;;;;5033750;28;20188;-81
2023/05/19 07:45:37;;;;;;;3.47;1.27;;;14.90;88.70;;;;;;5016435;28;20196;-82
2023/05/19 07:48:03;;;;;;;1.67;1.57;;;14.90;88.00;;;;;;5015653;28;20191;-81
2023/05/19 07:50:28;;;;;;;2.47;1.87;;;14.80;88.10;;;;;;5015595;28;20242;-82
2023/05/19 07:52:54;;;;;;;3.60;2.60;;;14.80;88.90;;;;;;5016181;28;20275;-82
2023/05/19 07:55:21;;;;;;;1.30;1.20;;;14.80;89.50;;;;;;5011977;28;20319;-82
2023/05/19 07:57:50;;;;;;;1.63;1.53;;;15.00;90.50;;;;;;5003910;28;20908;-81
2023/05/19 08:00:16;;;;;;;1.47;1.37;;;15.20;89.50;;;;;;4999641;28;20486;-80
2023/05/19 08:02:42;;;;;;;3.17;1.90;;;15.40;88.40;;;;;;5024009;28;20463;-82
2023/05/19 08:05:09;;;;;;;2.10;1.50;;;15.40;87.80;;;;;;5031727;28;20460;-82
2023/05/19 08:07:35;;;;;;;2.23;1.70;;;15.40;88.70;;;;;;5001578;28;20501;-79
2023/05/19 08:10:00;;;;;;;2.60;1.67;;;15.40;88.60;;;;;;4990520;28;21009;-82
2023/05/19 08:12:26;;;;;;;3.90;1.90;;;15.30;88.30;;;;;;4992950;28;20452;-83
2023/05/19 08:14:52;;;;;;;2.60;1.87;;;15.30;88.70;;;;;;5005180;28;20316;-80
2023/05/19 08:17:17;;;;;;;1.80;1.53;;;15.30;89.20;;;;;;5006811;28;20216;-79
2023/05/19 08:19:44;;;;;;;5.40;2.53;;;15.30;89.30;;;;;;4988735;28;20576;-80
2023/05/19 08:22:09;;;;;;;1.50;1.40;;;15.40;89.30;;;;;;4995653;28;20428;-78
2023/05/19 08:24:35;;;;;;;2.40;1.67;;;15.50;89.60;;;;;;5004778;28;20434;-80
2023/05/19 08:27:00;;;;;;;1.50;1.17;;;15.60;89.00;;;;;;4992865;28;20605;-78
2023/05/19 08:29:26;;;;;;;5.60;1.90;;;15.70;90.00;;;;;;4994762;28;20175;-80
2023/05/19 08:31:52;;;;;;;2.13;1.70;;;15.90;88.70;;;;;;5008626;28;20200;-79
2023/05/19 08:34:18;;;;;;;1.93;1.57;;;16.00;87.40;;;;;;4984731;28;20553;-78
2023/05/19 08:36:44;;;;;;;2.60;1.80;;;16.10;87.50;;;;;;4992413;28;20180;-78
2023/05/19 08:39:10;;;;;;;1.40;1.30;;;16.10;86.90;;;;;;5000875;28;20417;-80
2023/05/19 08:41:36;;;;;;;1.33;1.23;;;16.00;87.00;;;;;;4998780;28;20284;-80
2023/05/19 08:44:02;;;;;;;1.20;1.10;;;16.00;87.40;;;;;;4992447;28;20504;-80
2023/05/19 08:46:28;;;;;;;1.30;1.20;;;16.00;88.10;;;;;;4994717;28;20287;-81
2023/05/19 08:49:00;;;;;;;2.23;1.70;;;16.10;86.90;;;;;;4995476;28;20426;-82
2023/05/19 08:51:37;;;;;;;6.80;2.00;;;16.20;87.90;;;;;;5012133;28;20812;-81
2023/05/19 08:54:13;;;;;;;2.77;1.80;;;16.30;86.80;;;;;;4992766;28;20439;-83
2023/05/19 08:56:39;;;;;;;1.60;1.50;;;16.50;87.60;;;;;;5012106;28;20458;-81
2023/05/19 08:59:06;;;;;;;2.30;1.50;;;16.60;84.80;;;;;;4995338;28;20429;-81
2023/05/19 09:01:32;;;;;;;1.67;1.60;;;16.70;84.30;;;;;;4991642;28;20232;-81
2023/05/19 09:03:58;;;;;;;2.83;1.30;;;16.80;85.30;;;;;;4992789;28;20465;-82
2023/05/19 09:06:25;;;;;;;4.07;1.80;;;17.00;85.40;;;;;;4992196;28;20184;-82
2023/05/19 09:08:50;;;;;;;4.63;1.50;;;17.00;84.10;;;;;;4988816;28;20196;-83
2023/05/19 09:11:16;;;;;;;2.40;1.73;;;16.90;83.80;;;;;;4995084;28;20427;-81
2023/05/19 09:13:41;;;;;;;1.23;1.20;;;16.90;84.70;;;;;;4988471;28;20248;-82
2023/05/19 09:16:07;;;;;;;2.10;1.63;;;16.80;82.20;;;;;;4990502;28;20216;-81
2023/05/19 09:18:33;;;;;;;1.90;1.80;;;16.80;82.40;;;;;;4985581;28;20182;-82
2023/05/19 09:21:01;;;;;;;1.10;1.00;;;16.80;83.80;;;;;;4991425;28;20259;-81
2023/05/19 09:23:29;;;;;;;1.50;1.40;;;16.80;83.00;;;;;;5009493;28;20257;-82
2023/05/19 09:25:56;;;;;;;1.40;1.30;;;16.70;83.10;;;;;;4993943;28;20417;-80
2023/05/19 09:28:30;;;;;;;2.40;1.97;;;16.60;83.70;;;;;;4994575;28;20423;-82
2023/05/19 09:31:04;;;;;;;1.30;1.20;;;16.60;83.80;;;;;;5012814;28;20453;-81
2023/05/19 09:33:32;;;;;;;1.53;1.20;;;16.50;83.70;;;;;;4992520;28;20423;-81
2023/05/19 09:35:58;;;;;;;1.73;1.53;;;16.50;83.60;;;;;;5011454;28;20669;-81
2023/05/19 09:38:25;;;;;;;1.00;0.90;;;16.60;83.40;;;;;;4993607;28;20965;-83
2023/05/19 09:40:55;;;;;;;1.23;1.13;;;16.60;84.90;;;;;;5012683;28;20204;-82
2023/05/19 09:43:21;;;;;;;1.13;1.10;;;16.70;83.10;;;;;;5009305;28;20455;-82
2023/05/19 09:45:47;;;;;;;2.00;1.70;;;16.60;83.20;;;;;;5005456;28;20438;-82
2023/05/19 09:48:14;;;;;;;1.53;1.50;;;16.60;83.20;;;;;;5017306;28;20445;-81
2023/05/19 09:50:42;;;;;;;1.47;1.47;;;16.50;84.00;;;;;;5005871;28;20216;-83
2023/05/19 09:53:11;;;;;;;1.13;1.03;;;16.50;83.50;;;;;;5017387;28;20773;-84
2023/05/19 09:55:36;;;;;;;1.87;1.70;;;16.60;84.40;;;;;;5004418;28;20418;-82
2023/05/19 09:58:03;;;;;;;2.80;1.63;;;16.70;84.30;;;;;;5001071;28;20428;-81
2023/05/19 10:00:31;;;;;;;1.40;1.30;;;16.80;83.70;;;;;;5001265;28;20282;-81
2023/05/19 10:02:59;;;;;;;1.33;1.23;;;17.00;84.50;;;;;;5017652;28;20834;-82
2023/05/19 10:05:26;;;;;;;1.40;1.30;;;17.30;83.60;;;;;;5017426;28;20480;-81
2023/05/19 10:07:53;;;;;;;2.10;1.90;;;17.40;83.10;;;;;;5000182;28;20432;-83
2023/05/19 10:10:19;;;;;;;1.87;1.57;;;17.60;83.50;;;;;;5001176;28;20442;-80
2023/05/19 10:12:46;;;;;;;1.30;1.30;;;17.70;82.60;;;;;;5010281;28;20419;-83
2023/05/19 10:15:13;;;;;;;5.30;2.60;;;17.80;81.50;;;;;;5035478;23;20894;-66
2023/05/19 10:17:40;;;;;;;1.80;1.30;;;17.80;82.20;;;;;;5009156;28;20439;-66
2023/05/19 10:20:14;;;;;;;1.83;1.60;;;17.80;82.70;;;;;;5008011;28;20455;-66
2023/05/19 10:22:41;;;;;;;1.30;1.27;;;17.80;82.70;;;;;;5008639;28;20483;-66
2023/05/19 10:25:08;;;;;;;3.27;1.63;;;17.90;84.50;;;;;;5002266;28;21004;-68
2023/05/19 10:27:43;;;;;;;2.63;1.43;;;18.00;83.40;;;;;;5007690;28;20843;-65
2023/05/19 10:30:15;;;;;;;1.90;1.20;;;18.00;82.80;;;;;;4999356;28;20431;-65
2023/05/19 10:32:43;;;;;;;0.90;0.90;;;18.10;80.70;;;;;;5004667;28;20463;-65
2023/05/19 10:35:09;;;;;;;1.70;1.60;;;18.00;79.60;;;;;;5003941;28;21071;-65
2023/05/19 10:37:44;;;;;;;2.30;1.70;;;17.80;80.00;;;;;;5004953;28;20431;-64
2023/05/19 10:40:24;;;;;;;4.10;2.17;;;17.80;80.20;;;;;;5012121;28;20470;-65
2023/05/19 10:43:18;;;;;;;1.50;1.33;;;17.80;81.50;;;;;;5001689;28;20494;-65
2023/05/19 10:45:50;;;;;;;1.40;1.30;;;18.00;80.90;;;;;;4996924;28;20443;-66
2023/05/19 10:48:18;;;;;;;2.23;1.30;;;18.10;81.20;;;;;;5008046;28;20459;-65
2023/05/19 10:50:45;;;;;;;2.63;1.90;;;18.10;82.70;;;;;;5011388;28;20788;-65
2023/05/19 10:53:19;;;;;;;2.97;1.50;;;18.10;81.70;;;;;;5009950;28;20434;-65
2023/05/19 10:55:57;;;;;;;1.93;1.83;;;18.20;83.20;;;;;;5007599;28;20455;-65
2023/05/19 10:58:37;;;;;;;2.00;1.33;;;18.30;80.40;;;;;;5010880;28;20926;-65
2023/05/19 11:01:16;;;;;;;1.70;1.60;;;18.40;81.60;;;;;;5006672;28;20474;-65
2023/05/19 11:03:53;;;;;;;2.60;1.53;;;18.60;81.80;;;;;;5005178;28;20493;-66
2023/05/19 11:06:27;;;;;;;1.37;1.27;;;18.70;83.40;;;;;;5023042;28;20943;-66
2023/05/19 11:09:09;;;;;;;1.83;1.07;;;18.70;82.40;;;;;;5008868;28;20637;-66
2023/05/19 11:11:48;;;;;;;3.13;1.97;;;18.80;82.20;;;;;;5009288;28;20994;-64
2023/05/19 11:14:26;;;;;;;7.63;2.20;;;18.70;82.00;;;;;;5007070;28;20994;-65
2023/05/19 11:16:56;;;;;;;3.37;2.07;;;18.70;82.00;;;;;;5009234;28;20587;-65
2023/05/19 11:19:27;;;;;;;1.30;1.20;;;18.70;81.40;;;;;;5013329;28;20525;-65
2023/05/19 11:21:56;;;;;;;8.43;1.93;;;18.80;82.90;;;;;;5022797;28;20455;-67
2023/05/19 11:24:49;;;;;;;1.37;1.30;;;18.80;80.70;;;;;;5011816;28;20420;-67
2023/05/19 11:27:32;;;;;;;1.00;0.90;;;18.60;80.90;;;;;;5008978;28;20542;-66
2023/05/19 11:30:10;;;;;;;1.13;1.10;;;18.70;82.30;;;;;;5007519;28;20432;-72
2023/05/19 11:32:40;;;;;;;3.97;1.83;;;18.80;82.90;;;;;;5009297;28;20852;-68
2023/05/19 11:35:08;;;;;;;1.73;1.47;;;18.90;82.10;;;;;;5009286;28;20803;-68
2023/05/19 11:37:35;;;;;;;4.10;1.67;;;18.90;80.40;;;;;;5010222;28;20427;-66
2023/05/19 11:40:04;;;;;;;2.87;2.00;;;18.90;81.10;;;;;;5004605;28;21001;-66
2023/05/19 11:42:30;;;;;;;5.83;3.73;;;18.90;81.80;;;;;;5009958;28;20480;-66
2023/05/19 11:44:56;;;;;;;1.20;1.20;;;19.00;82.30;;;;;;5011087;28;20426;-66
2023/05/19 11:47:22;;;;;;;2.23;1.93;;;18.90;80.40;;;;;;5010507;28;20430;-66
2023/05/19 11:49:47;;;;;;;1.47;1.30;;;18.80;80.60;;;;;;5010429;28;20189;-66
2023/05/19 11:52:13;;;;;;;2.70;1.40;;;18.80;80.60;;;;;;5013112;28;20204;-67
2023/05/19 11:54:40;;;;;;;2.87;1.97;;;18.80;79.70;;;;;;5010989;28;20184;-66
2023/05/19 11:57:09;;;;;;;1.37;1.27;;;18.70;80.40;;;;;;5014863;28;20432;-66
2023/05/19 11:59:37;;;;;;;1.63;1.43;;;18.70;80.60;;;;;;5010240;28;20435;-68
2023/05/19 12:02:16;;;;;;;1.70;1.60;;;18.70;81.50;;;;;;5009802;28;20462;-67
2023/05/19 12:04:41;;;;;;;1.70;1.53;;;18.90;81.60;;;;;;5012391;28;20969;-67
2023/05/19 12:07:07;;;;;;;1.20;1.10;;;19.00;81.00;;;;;;5004333;28;20440;-68
2023/05/19 12:09:33;;;;;;;2.10;1.60;;;19.30;79.40;;;;;;5006496;28;20692;-66
2023/05/19 12:11:59;;;;;;;1.73;1.70;;;19.40;79.80;;;;;;5002200;28;20444;-67
2023/05/19 12:14:30;;;;;;;2.80;2.13;;;19.50;79.20;;;;;;5008898;28;20264;-67
2023/05/19 12:16:55;;;;;;;5.03;1.47;;;19.60;80.30;;;;;;5008304;28;20995;-67
2023/05/19 12:19:24;;;;;;;7.23;2.07;;;19.70;79.00;;;;;;5000717;28;20509;-67
2023/05/19 12:21:51;;;;;;;2.73;1.90;;;19.80;79.30;;;;;;4998160;28;20732;-67
2023/05/19 12:24:18;;;;;;;1.60;1.50;;;20.10;78.20;;;;;;5007756;28;20427;-69
2023/05/19 12:26:44;;;;;;;1.63;1.53;;;20.40;78.70;;;;;;5010298;28;20419;-67
2023/05/19 12:29:11;;;;;;;1.60;1.60;;;20.50;77.20;;;;;;5006770;28;20420;-67
2023/05/19 12:31:37;;;;;;;1.10;0.90;;;20.50;77.50;;;;;;5005700;28;20204;-67
2023/05/19 12:34:03;;;;;;;1.20;1.10;;;20.50;76.40;;;;;;5002904;28;21819;-68
2023/05/19 12:36:30;;;;;;;2.17;1.73;;;20.60;77.20;;;;;;5007285;28;20196;-68
2023/05/19 12:38:56;;;;;;;1.43;1.33;;;20.70;77.30;;;;;;5006574;28;20196;-69
2023/05/19 12:41:24;;;;;;;3.00;1.83;;;20.80;75.60;;;;;;5020835;28;20887;-67
2023/05/19 12:43:49;;;;;;;4.07;2.00;;;20.60;75.60;;;;;;5001147;28;20212;-67
2023/05/19 12:46:17;;;;;;;1.70;1.50;;;20.40;76.10;;;;;;5004860;28;20959;-65
2023/05/19 12:48:44;;;;;;;7.43;2.53;;;20.20;76.40;;;;;;5002997;28;20660;-67
2023/05/19 12:51:14;;;;;;;3.70;1.60;;;20.00;76.20;;;;;;4997806;28;20455;-66
2023/05/19 12:53:41;;;;;;;1.70;1.40;;;20.00;76.80;;;;;;4998318;28;20440;-69
2023/05/19 12:56:16;;;;;;;1.13;1.10;;;20.00;77.60;;;;;;5013507;28;20831;-69
2023/05/19 12:58:42;;;;;;;1.20;1.10;;;20.20;77.00;;;;;;5026376;28;20433;-68
2023/05/19 13:01:14;;;;;;;1.70;1.63;;;20.40;77.40;;;;;;5012851;28;20475;-68
2023/05/19 13:03:43;;;;;;;2.27;1.63;;;20.70;77.90;;;;;;5012389;28;20201;-68
2023/05/19 13:06:09;;;;;;;1.20;1.03;;;21.00;77.10;;;;;;5010610;28;20421;-67
2023/05/19 13:08:36;;;;;;;7.90;1.80;;;21.30;76.60;;;;;;5013284;28;20431;-69
2023/05/19 13:11:02;;;;;;;5.30;1.50;;;21.60;75.00;;;;;;5010090;28;20452;-68
2023/05/19 13:13:27;;;;;;;1.63;1.60;;;21.70;74.20;;;;;;5011473;28;20481;-68
2023/05/19 13:15:53;;;;;;;1.53;1.43;;;21.70;74.30;;;;;;5007871;28;20319;-70
2023/05/19 13:18:18;;;;;;;3.17;1.93;;;21.60;73.60;;;;;;5007975;28;20199;-70
2023/05/19 13:20:46;;;;;;;1.17;1.10;;;21.20;72.10;;;;;;5012455;28;20733;-69
2023/05/19 13:23:12;;;;;;;1.20;1.10;;;20.80;72.60;;;;;;5013887;28;20177;-69
2023/05/19 13:25:38;;;;;;;1.70;1.27;;;20.40;73.90;;;;;;5012290;28;20464;-69
2023/05/19 13:28:04;;;;;;;1.43;1.27;;;20.30;74.60;;;;;;5014884;28;20486;-68
2023/05/19 13:30:31;;;;;;;1.53;1.37;;;20.60;75.10;;;;;;5013923;28;20447;-68
2023/05/19 13:32:56;;;;;;;1.40;1.30;;;20.80;75.90;;;;;;5014878;28;20511;-69
2023/05/19 13:35:22;;;;;;;1.53;1.40;;;20.90;74.10;;;;;;5010821;28;20515;-69
2023/05/19 13:37:48;;;;;;;1.77;1.63;;;20.70;74.90;;;;;;5012829;28;20260;-68
2023/05/19 13:40:14;;;;;;;1.47;1.37;;;20.50;75.60;;;;;;5015369;28;20786;-70
2023/05/19 13:42:40;;;;;;;2.10;1.57;;;20.30;76.10;;;;;;5015623;28;20407;-68
2023/05/19 13:45:06;;;;;;;2.97;1.53;;;20.20;75.10;;;;;;5015726;28;20477;-70
2023/05/19 13:47:32;;;;;;;1.77;1.67;;;20.10;75.70;;;;;;5016546;28;20673;-68
2023/05/19 13:49:57;;;;;;;1.17;1.10;;;20.00;75.10;;;;;;5014291;28;20431;-71
2023/05/19 13:52:23;;;;;;;1.50;1.40;;;19.90;75.10;;;;;;5017236;28;20204;-68
2023/05/19 13:54:48;;;;;;;1.23;1.13;;;19.80;76.30;;;;;;5015408;28;20679;-68
2023/05/19 13:57:15;;;;;;;1.20;1.10;;;19.70;75.60;;;;;;5014812;28;20177;-68
2023/05/19 13:59:41;;;;;;;1.27;1.23;;;19.80;75.60;;;;;;5014371;28;20598;-68
2023/05/19 14:02:07;;;;;;;2.37;1.30;;;19.80;76.30;;;;;;5017555;28;20999;-67
2023/05/19 14:04:36;;;;;;;1.50;1.40;;;19.90;77.00;;;;;;5018651;28;20791;-68
2023/05/19 14:07:01;;;;;;;1.80;1.33;;;20.20;78.30;;;;;;5013366;28;20446;-67
2023/05/19 14:09:27;;;;;;;4.27;1.40;;;20.50;76.50;;;;;;5017021;28;21427;-68
2023/05/19 14:11:52;;;;;;;2.23;1.60;;;20.50;77.60;;;;;;5016088;28;20917;-72
2023/05/19 14:14:18;;;;;;;1.90;1.20;;;20.30;77.70;;;;;;5016308;28;20708;-69
2023/05/19 14:16:43;;;;;;;1.40;1.30;;;20.10;77.80;;;;;;5014136;28;20217;-66
2023/05/19 14:19:10;;;;;;;1.63;1.53;;;20.00;78.40;;;;;;5017097;28;20176;-72
2023/05/19 14:21:36;;;;;;;1.80;1.70;;;20.10;78.80;;;;;;5018490;28;20761;-67
2023/05/19 14:24:02;;;;;;;1.47;1.10;;;20.20;78.90;;;;;;5015318;28;20511;-67
2023/05/19 14:26:28;;;;;;;7.87;1.60;;;20.50;78.40;;;;;;5014706;28;20511;-70
2023/05/19 14:28:55;;;;;;;1.20;1.10;;;20.80;79.20;;;;;;5016005;28;20189;-68
2023/05/19 14:31:21;;;;;;;1.10;1.00;;;20.90;78.40;;;;;;5015620;28;20196;-70
2023/05/19 14:33:46;;;;;;;1.20;1.10;;;20.70;77.50;;;;;;5017392;28;21140;-67
2023/05/19 14:36:12;;;;;;;1.93;1.83;;;20.40;78.10;;;;;;5017668;28;20180;-66
2023/05/19 14:38:37;;;;;;;1.87;1.53;;;20.60;80.10;;;;;;5013332;28;20192;-67
2023/05/19 14:41:03;;;;;;;8.20;1.80;;;20.90;79.00;;;;;;5017077;28;20224;-69
2023/05/19 14:43:29;;;;;;;1.43;1.33;;;21.00;78.00;;;;;;5018438;28;20185;-67
2023/05/19 14:45:55;;;;;;;6.13;1.80;;;21.00;76.10;;;;;;5019754;28;20170;-70
2023/05/19 14:48:21;;;;;;;1.47;1.37;;;20.80;76.90;;;;;;5013469;28;20298;-67
2023/05/19 14:50:49;;;;;;;2.00;1.67;;;20.70;78.20;;;;;;5016631;28;20541;-69
2023/05/19 14:53:15;;;;;;;5.60;1.63;;;20.60;77.30;;;;;;5018044;28;20251;-68
2023/05/19 14:55:41;;;;;;;2.17;1.20;;;20.20;77.50;;;;;;5016559;28;20411;-66
2023/05/19 14:58:07;;;;;;;1.57;1.23;;;19.80;78.40;;;;;;5013983;28;20419;-69
2023/05/19 15:00:33;;;;;;;1.20;1.20;;;19.50;78.70;;;;;;5016841;28;20544;-68
2023/05/19 15:02:58;;;;;;;1.77;1.67;;;19.30;79.30;;;;;;5015343;28;20182;-68
2023/05/19 15:05:24;;;;;;;1.60;1.50;;;19.30;81.20;;;;;;5016350;28;20177;-68
2023/05/19 15:07:50;;;;;;;1.13;1.03;;;19.60;79.80;;;;;;5015897;28;20192;-69
2023/05/19 15:10:16;;;;;;;1.60;1.47;;;19.90;79.30;;;;;;5015794;28;20200;-67
2023/05/19 15:12:42;;;;;;;2.17;1.73;;;20.20;78.60;;;;;;5016359;28;20177;-67
2023/05/19 15:15:08;;;;;;;3.83;1.97;;;20.60;77.90;;;;;;5018197;28;20594;-67
2023/05/19 15:17:34;;;;;;;1.30;1.20;;;20.90;78.00;;;;;;5014732;28;20177;-67
2023/05/19 15:19:59;;;;;;;1.63;1.33;;;21.20;77.70;;;;;;5016650;28;20460;-66
2023/05/19 15:22:25;;;;;;;2.30;1.37;;;21.40;78.40;;;;;;5018782;28;20196;-67
2023/05/19 15:24:51;;;;;;;1.57;1.20;;;21.40;76.80;;;;;;5018355;28;20165;-66
2023/05/19 15:27:16;;;;;;;3.90;1.67;;;21.20;77.50;;;;;;5014779;28;20927;-66
2023/05/19 15:29:42;;;;;;;3.43;1.80;;;21.00;77.10;;;;;;5019467;28;20180;-66
2023/05/19 15:32:07;;;;;;;1.47;1.23;;;20.80;77.40;;;;;;5015315;28;20251;-67
2023/05/19 15:34:33;;;;;;;1.70;1.57;;;20.60;78.40;;;;;;5014634;28;20177;-66
2023/05/19 15:36:58;;;;;;;1.40;1.37;;;20.50;77.90;;;;;;5012678;28;20673;-66
2023/05/19 15:39:24;;;;;;;2.33;1.70;;;20.40;78.10;;;;;;5016405;28;20178;-67
2023/05/19 15:41:50;;;;;;;1.53;1.37;;;20.20;78.20;;;;;;5016397;28;20636;-67
2023/05/19 15:44:16;;;;;;;1.83;1.20;;;20.20;79.50;;;;;;5015667;28;20619;-66
2023/05/19 15:46:41;;;;;;;1.50;1.37;;;20.20;79.30;;;;;;5013334;28;20169;-66
2023/05/19 15:49:07;;;;;;;1.20;1.10;;;20.20;78.70;;;;;;5018925;28;20784;-65
2023/05/19 15:51:33;;;;;;;1.23;1.13;;;19.90;78.30;;;;;;5017457;28;20905;-66
2023/05/19 15:53:58;;;;;;;1.57;1.30;;;19.60;78.60;;;;;;5017063;28;20908;-66
2023/05/19 15:56:24;;;;;;;2.00;1.27;;;19.20;79.50;;;;;;5020551;28;20177;-66
2023/05/19 15:58:50;;;;;;;1.30;1.20;;;18.90;80.40;;;;;;5019357;28;20189;-67
2023/05/19 16:01:16;;;;;;;3.57;2.23;;;18.70;81.00;;;;;;5018354;28;20951;-68
2023/05/19 16:03:42;;;;;;;1.90;1.70;;;18.60;80.40;;;;;;5015145;28;20219;-66
2023/05/19 16:06:07;;;;;;;1.23;1.13;;;18.50;81.00;;;;;;5016355;28;20415;-74
2023/05/19 16:08:33;;;;;;;2.60;1.60;;;18.40;81.10;;;;;;5014126;28;20200;-67
2023/05/19 16:10:59;;;;;;;1.30;1.30;;;18.40;81.10;;;;;;5017523;28;20209;-67
2023/05/19 16:13:24;;;;;;;1.67;1.57;;;18.40;81.60;;;;;;5008308;28;20277;-69
2023/05/19 16:15:50;;;;;;;2.50;1.60;;;18.50;81.90;;;;;;5013076;23;20243;-68
2023/05/19 16:18:15;;;;;;;2.13;1.70;;;18.70;81.90;;;;;;4989654;28;20193;-68
2023/05/19 16:20:42;;;;;;;2.20;1.73;;;18.80;81.80;;;;;;5005995;28;20217;-68
2023/05/19 16:23:08;;;;;;;2.80;1.67;;;18.70;81.70;;;;;;4989639;28;20551;-67
2023/05/19 16:25:34;;;;;;;1.67;1.57;;;18.50;81.50;;;;;;4986893;28;20443;-67
2023/05/19 16:27:59;;;;;;;1.43;1.30;;;18.30;82.20;;;;;;4985480;28;21094;-68
2023/05/19 16:30:26;;;;;;;1.27;1.17;;;18.20;83.00;;;;;;4977635;28;20780;-68
2023/05/19 16:32:53;;;;;;;1.73;1.50;;;18.10;82.80;;;;;;4980573;28;20174;-67
2023/05/19 16:35:19;;;;;;;4.20;1.67;;;18.00;83.00;;;;;;4972153;28;20479;-67
2023/05/19 16:37:45;;;;;;;17.33;1.30;;;18.00;83.30;;;;;;4982893;28;20462;-68
2023/05/19 16:40:11;;;;;;;1.27;1.20;;;18.10;83.40;;;;;;4982751;28;20483;-68
2023/05/19 16:42:37;;;;;;;1.43;1.30;;;18.20;83.10;;;;;;4996927;28;20216;-68
2023/05/19 16:45:03;;;;;;;1.63;1.53;;;18.30;83.20;;;;;;4998132;28;20460;-68
2023/05/19 16:47:28;;;;;;;1.77;1.70;;;18.40;82.80;;;;;;4987654;28;20173;-68